sensor_id;sensor_type;location;lat;lon;timestamp;temperature;humidity
70151;DHT22;57517;43.562;19.540;2022-08-11T00:00:39;537.80;1920.00
70151;DHT22;57517;43.562;19.540;2022-08-11T00:03:11;537.70;1945.60
70151;DHT22;57517;43.562;19.540;2022-08-11T00:05:50;537.70;1945.60
70151;DHT22;57517;43.562;19.540;2022-08-11T00:08:24;537.70;1945.60
70151;DHT22;57517;43.562;19.540;2022-08-11T00:11:07;512.90;1920.00
70151;DHT22;57517;43.562;19.540;2022-08-11T00:13:41;537.60;1971.20
70151;DHT22;57517;43.562;19.540;2022-08-11T00:16:27;537.70;1945.60
70151;DHT22;57517;43.562;19.540;2022-08-11T00:18:56;512.80;1945.60
70151;DHT22;57517;43.562;19.540;2022-08-11T00:21:25;512.70;1971.20
70151;DHT22;57517;43.562;19.540;2022-08-11T00:26:21;512.50;1971.20
70151;DHT22;57517;43.562;19.540;2022-08-11T00:28:48;512.20;1996.80
70151;DHT22;57517;43.562;19.540;2022-08-11T00:31:30;512.20;2022.40
70151;DHT22;57517;43.562;19.540;2022-08-11T00:33:59;512.20;2022.40
70151;DHT22;57517;43.562;19.540;2022-08-11T00:39:13;512.30;2022.40
70151;DHT22;57517;43.562;19.540;2022-08-11T01:00:18;487.10;2073.60
70151;DHT22;57517;43.562;19.540;2022-08-11T01:03:16;487.30;2073.60
70151;DHT22;57517;43.562;19.540;2022-08-11T01:08:39;512.30;2022.40
70151;DHT22;57517;43.562;19.540;2022-08-11T01:14:13;512.00;2048.00
70151;DHT22;57517;43.562;19.540;2022-08-11T01:28:07;487.10;2073.60
70151;DHT22;57517;43.562;19.540;2022-08-11T01:45:58;486.40;2176.00
70151;DHT22;57517;43.562;19.540;2022-08-11T01:48:12;486.80;2124.80
70151;DHT22;57517;43.562;19.540;2022-08-11T01:51:04;486.90;2124.80
70151;DHT22;57517;43.562;19.540;2022-08-11T01:53:56;487.10;2099.20
70151;DHT22;57517;43.562;19.540;2022-08-11T01:59:33;487.20;2073.60
70151;DHT22;57517;43.562;19.540;2022-08-11T02:11:26;486.80;2150.40
70151;DHT22;57517;43.562;19.540;2022-08-11T02:14:01;486.90;2124.80
70151;DHT22;57517;43.562;19.540;2022-08-11T02:28:23;486.60;2150.40
70151;DHT22;57517;43.562;19.540;2022-08-11T02:31:26;486.40;2150.40
70151;DHT22;57517;43.562;19.540;2022-08-11T02:48:13;486.50;2201.60
70151;DHT22;57517;43.562;19.540;2022-08-11T02:54:00;486.50;2201.60
70151;DHT22;57517;43.562;19.540;2022-08-11T02:59:27;461.60;2252.80
70151;DHT22;57517;43.562;19.540;2022-08-11T03:07:49;461.70;2201.60
70151;DHT22;57517;43.562;19.540;2022-08-11T03:10:22;461.60;2201.60
70151;DHT22;57517;43.562;19.540;2022-08-11T03:13:09;461.50;2227.20
70151;DHT22;57517;43.562;19.540;2022-08-11T03:16:36;461.60;2227.20
70151;DHT22;57517;43.562;19.540;2022-08-11T03:22:33;486.50;2176.00
70151;DHT22;57517;43.562;19.540;2022-08-11T03:25:29;486.50;2176.00
70151;DHT22;57517;43.562;19.540;2022-08-11T03:28:28;486.50;2176.00
70151;DHT22;57517;43.562;19.540;2022-08-11T03:33:40;486.50;2176.00
70151;DHT22;57517;43.562;19.540;2022-08-11T03:53:17;486.50;2201.60
70151;DHT22;57517;43.562;19.540;2022-08-11T04:01:40;461.70;2227.20
70151;DHT22;57517;43.562;19.540;2022-08-11T04:15:44;486.90;2150.40
70151;DHT22;57517;43.562;19.540;2022-08-11T04:29:56;486.70;2176.00
70151;DHT22;57517;43.562;19.540;2022-08-11T04:41:06;487.10;2124.80
70151;DHT22;57517;43.562;19.540;2022-08-11T04:59:07;487.20;2124.80
70151;DHT22;57517;43.562;19.540;2022-08-11T05:04:56;512.00;2099.20
70151;DHT22;57517;43.562;19.540;2022-08-11T05:11:34;512.30;2073.60
70151;DHT22;57517;43.562;19.540;2022-08-11T05:17:44;538.50;1920.00
70151;DHT22;57517;43.562;19.540;2022-08-11T05:20:02;563.60;1843.20
70151;DHT22;57517;43.562;19.540;2022-08-11T05:22:50;538.30;1868.80
70151;DHT22;57517;43.562;19.540;2022-08-11T05:25:36;538.00;1894.40
70151;DHT22;57517;43.562;19.540;2022-08-11T05:29:00;538.00;1920.00
70151;DHT22;57517;43.562;19.540;2022-08-11T05:31:47;537.80;1945.60
70151;DHT22;57517;43.562;19.540;2022-08-11T05:34:52;537.80;1945.60
70151;DHT22;57517;43.562;19.540;2022-08-11T05:40:07;537.70;1945.60
70151;DHT22;57517;43.562;19.540;2022-08-11T05:43:04;537.60;1945.60
70151;DHT22;57517;43.562;19.540;2022-08-11T05:46:03;537.80;1945.60
70151;DHT22;57517;43.562;19.540;2022-08-11T05:48:48;537.90;1920.00
70151;DHT22;57517;43.562;19.540;2022-08-11T05:51:34;538.20;1894.40
70151;DHT22;57517;43.562;19.540;2022-08-11T05:54:19;538.20;1894.40
70151;DHT22;57517;43.562;19.540;2022-08-11T05:57:04;538.00;1920.00
70151;DHT22;57517;43.562;19.540;2022-08-11T05:59:31;538.10;1920.00
70151;DHT22;57517;43.562;19.540;2022-08-11T06:02:04;538.30;1920.00
70151;DHT22;57517;43.562;19.540;2022-08-11T06:04:32;563.20;1894.40
70151;DHT22;57517;43.562;19.540;2022-08-11T06:07:05;538.40;1894.40
70151;DHT22;57517;43.562;19.540;2022-08-11T06:09:45;538.50;1868.80
70151;DHT22;57517;43.562;19.540;2022-08-11T06:12:24;563.30;1894.40
70151;DHT22;57517;43.562;19.540;2022-08-11T06:14:54;563.50;1868.80
70151;DHT22;57517;43.562;19.540;2022-08-11T06:17:25;563.60;1868.80
70151;DHT22;57517;43.562;19.540;2022-08-11T06:20:05;563.90;1843.20
70151;DHT22;57517;43.562;19.540;2022-08-11T06:22:32;564.00;1843.20
70151;DHT22;57517;43.562;19.540;2022-08-11T06:25:03;588.90;1792.00
70151;DHT22;57517;43.562;19.540;2022-08-11T06:27:32;589.50;1740.80
70151;DHT22;57517;43.562;19.540;2022-08-11T06:29:59;640.00;1612.80
70151;DHT22;57517;43.562;19.540;2022-08-11T06:32:31;691.30;1510.40
70151;DHT22;57517;43.562;19.540;2022-08-11T06:35:17;717.30;1382.40
70151;DHT22;57517;43.562;19.540;2022-08-11T06:46:42;870.90;1024.00
70151;DHT22;57517;43.562;19.540;2022-08-11T06:49:10;896.70;972.80
70151;DHT22;57517;43.562;19.540;2022-08-11T06:52:06;922.10;947.20
70151;DHT22;57517;43.562;19.540;2022-08-11T06:54:44;947.30;921.60
70151;DHT22;57517;43.562;19.540;2022-08-11T07:00:03;973.50;844.80
70151;DHT22;57517;43.562;19.540;2022-08-11T07:02:50;973.10;870.40
70151;DHT22;57517;43.562;19.540;2022-08-11T07:14:26;999.10;793.60
70151;DHT22;57517;43.562;19.540;2022-08-11T07:17:15;998.90;819.20
70151;DHT22;57517;43.562;19.540;2022-08-11T07:19:46;998.90;793.60
70151;DHT22;57517;43.562;19.540;2022-08-11T07:22:34;999.20;793.60
70151;DHT22;57517;43.562;19.540;2022-08-11T07:25:21;998.70;793.60
70151;DHT22;57517;43.562;19.540;2022-08-11T07:28:32;998.90;793.60
70151;DHT22;57517;43.562;19.540;2022-08-11T07:31:39;973.00;793.60
70151;DHT22;57517;43.562;19.540;2022-08-11T07:34:28;973.20;793.60
70151;DHT22;57517;43.562;19.540;2022-08-11T07:36:59;973.70;768.00
70151;DHT22;57517;43.562;19.540;2022-08-11T07:39:31;947.70;819.20
70151;DHT22;57517;43.562;19.540;2022-08-11T07:41:59;947.90;819.20
70151;DHT22;57517;43.562;19.540;2022-08-11T07:44:29;947.80;819.20
70151;DHT22;57517;43.562;19.540;2022-08-11T07:46:56;922.30;870.40
70151;DHT22;57517;43.562;19.540;2022-08-11T07:49:44;896.40;896.00
70151;DHT22;57517;43.562;19.540;2022-08-11T07:52:33;896.10;921.60
70151;DHT22;57517;43.562;19.540;2022-08-11T07:55:14;871.10;947.20
70151;DHT22;57517;43.562;19.540;2022-08-11T07:57:44;871.10;947.20
70151;DHT22;57517;43.562;19.540;2022-08-11T08:00:28;896.00;921.60
70151;DHT22;57517;43.562;19.540;2022-08-11T08:03:19;896.40;896.00
70151;DHT22;57517;43.562;19.540;2022-08-11T08:06:05;896.70;870.40
70151;DHT22;57517;43.562;19.540;2022-08-11T08:08:50;896.40;844.80
70151;DHT22;57517;43.562;19.540;2022-08-11T08:11:35;870.90;896.00
70151;DHT22;57517;43.562;19.540;2022-08-11T08:14:20;871.00;896.00
70151;DHT22;57517;43.562;19.540;2022-08-11T08:17:06;870.90;819.20
70151;DHT22;57517;43.562;19.540;2022-08-11T08:19:51;870.90;844.80
70151;DHT22;57517;43.562;19.540;2022-08-11T08:22:19;870.60;819.20
70151;DHT22;57517;43.562;19.540;2022-08-11T08:24:46;870.60;819.20
70151;DHT22;57517;43.562;19.540;2022-08-11T08:27:13;870.50;819.20
70151;DHT22;57517;43.562;19.540;2022-08-11T08:29:40;845.50;844.80
70151;DHT22;57517;43.562;19.540;2022-08-11T08:32:26;845.00;844.80
70151;DHT22;57517;43.562;19.540;2022-08-11T08:34:54;819.90;819.20
70151;DHT22;57517;43.562;19.540;2022-08-11T08:37:22;819.50;844.80
70151;DHT22;57517;43.562;19.540;2022-08-11T08:39:49;819.70;844.80
70151;DHT22;57517;43.562;19.540;2022-08-11T08:42:24;819.40;819.20
70151;DHT22;57517;43.562;19.540;2022-08-11T08:45:27;794.50;844.80
70151;DHT22;57517;43.562;19.540;2022-08-11T08:47:52;819.30;819.20
70151;DHT22;57517;43.562;19.540;2022-08-11T08:50:21;819.40;819.20
70151;DHT22;57517;43.562;19.540;2022-08-11T08:53:00;819.30;819.20
70151;DHT22;57517;43.562;19.540;2022-08-11T08:55:30;793.80;819.20
70151;DHT22;57517;43.562;19.540;2022-08-11T08:57:57;793.90;819.20
70151;DHT22;57517;43.562;19.540;2022-08-11T09:00:40;793.90;844.80
70151;DHT22;57517;43.562;19.540;2022-08-11T09:03:07;768.70;819.20
70151;DHT22;57517;43.562;19.540;2022-08-11T09:05:33;768.90;844.80
70151;DHT22;57517;43.562;19.540;2022-08-11T09:08:00;793.70;819.20
70151;DHT22;57517;43.562;19.540;2022-08-11T09:10:26;793.60;793.60
70151;DHT22;57517;43.562;19.540;2022-08-11T09:12:55;768.40;793.60
70151;DHT22;57517;43.562;19.540;2022-08-11T09:15:22;768.20;742.40
70151;DHT22;57517;43.562;19.540;2022-08-11T09:17:51;743.30;768.00
70151;DHT22;57517;43.562;19.540;2022-08-11T09:20:24;743.10;742.40
70151;DHT22;57517;43.562;19.540;2022-08-11T09:22:54;742.70;768.00
70151;DHT22;57517;43.562;19.540;2022-08-11T09:25:40;742.40;768.00
70151;DHT22;57517;43.562;19.540;2022-08-11T09:28:27;742.60;716.80
70151;DHT22;57517;43.562;19.540;2022-08-11T09:30:57;742.60;742.40
70151;DHT22;57517;43.562;19.540;2022-08-11T09:33:27;742.80;768.00
70151;DHT22;57517;43.562;19.540;2022-08-11T09:35:53;742.80;742.40
70151;DHT22;57517;43.562;19.540;2022-08-11T09:38:22;742.60;742.40
70151;DHT22;57517;43.562;19.540;2022-08-11T09:41:08;742.70;768.00
70151;DHT22;57517;43.562;19.540;2022-08-11T09:43:45;743.00;742.40
70151;DHT22;57517;43.562;19.540;2022-08-11T09:46:30;743.30;716.80
70151;DHT22;57517;43.562;19.540;2022-08-11T09:49:00;768.40;742.40
70151;DHT22;57517;43.562;19.540;2022-08-11T09:51:30;768.60;742.40
70151;DHT22;57517;43.562;19.540;2022-08-11T09:53:59;768.70;742.40
70151;DHT22;57517;43.562;19.540;2022-08-11T09:56:25;768.70;691.20
70151;DHT22;57517;43.562;19.540;2022-08-11T09:59:12;768.60;691.20
70151;DHT22;57517;43.562;19.540;2022-08-11T10:01:42;768.60;691.20
70151;DHT22;57517;43.562;19.540;2022-08-11T10:04:23;768.70;716.80
70151;DHT22;57517;43.562;19.540;2022-08-11T10:06:52;768.60;691.20
70151;DHT22;57517;43.562;19.540;2022-08-11T10:09:49;768.60;665.60
70151;DHT22;57517;43.562;19.540;2022-08-11T10:12:25;768.70;716.80
70151;DHT22;57517;43.562;19.540;2022-08-11T10:14:55;768.80;691.20
70151;DHT22;57517;43.562;19.540;2022-08-11T10:17:43;768.80;691.20
70151;DHT22;57517;43.562;19.540;2022-08-11T10:20:32;793.60;716.80
70151;DHT22;57517;43.562;19.540;2022-08-11T10:23:01;793.60;742.40
70151;DHT22;57517;43.562;19.540;2022-08-11T10:25:46;793.60;716.80
70151;DHT22;57517;43.562;19.540;2022-08-11T10:28:30;768.90;691.20
70151;DHT22;57517;43.562;19.540;2022-08-11T10:30:58;768.90;691.20
70151;DHT22;57517;43.562;19.540;2022-08-11T10:33:44;768.70;665.60
70151;DHT22;57517;43.562;19.540;2022-08-11T10:38:57;768.80;691.20
70151;DHT22;57517;43.562;19.540;2022-08-11T10:41:24;768.70;716.80
70151;DHT22;57517;43.562;19.540;2022-08-11T10:44:09;793.60;716.80
70151;DHT22;57517;43.562;19.540;2022-08-11T10:46:37;793.80;742.40
70151;DHT22;57517;43.562;19.540;2022-08-11T10:49:23;793.90;742.40
70151;DHT22;57517;43.562;19.540;2022-08-11T10:51:50;794.20;716.80
70151;DHT22;57517;43.562;19.540;2022-08-11T10:54:35;794.20;742.40
70151;DHT22;57517;43.562;19.540;2022-08-11T10:57:21;794.20;691.20
70151;DHT22;57517;43.562;19.540;2022-08-11T11:00:08;793.70;716.80
70151;DHT22;57517;43.562;19.540;2022-08-11T11:02:34;768.50;716.80
70151;DHT22;57517;43.562;19.540;2022-08-11T11:05:07;743.30;742.40
70151;DHT22;57517;43.562;19.540;2022-08-11T11:10:11;743.10;742.40
70151;DHT22;57517;43.562;19.540;2022-08-11T11:12:45;743.10;742.40
70151;DHT22;57517;43.562;19.540;2022-08-11T11:15:34;768.00;742.40
70151;DHT22;57517;43.562;19.540;2022-08-11T11:18:29;768.40;742.40
70151;DHT22;57517;43.562;19.540;2022-08-11T11:21:09;768.40;691.20
70151;DHT22;57517;43.562;19.540;2022-08-11T11:29:43;742.90;716.80
70151;DHT22;57517;43.562;19.540;2022-08-11T11:33:32;742.90;716.80
70151;DHT22;57517;43.562;19.540;2022-08-11T11:35:34;742.80;742.40
70151;DHT22;57517;43.562;19.540;2022-08-11T11:38:01;743.10;691.20
70151;DHT22;57517;43.562;19.540;2022-08-11T11:40:27;743.10;691.20
70151;DHT22;57517;43.562;19.540;2022-08-11T11:42:55;743.10;691.20
70151;DHT22;57517;43.562;19.540;2022-08-11T11:45:23;743.30;742.40
70151;DHT22;57517;43.562;19.540;2022-08-11T11:47:54;743.30;742.40
70151;DHT22;57517;43.562;19.540;2022-08-11T11:50:38;743.20;716.80
70151;DHT22;57517;43.562;19.540;2022-08-11T11:53:07;743.10;742.40
70151;DHT22;57517;43.562;19.540;2022-08-11T11:55:33;743.20;768.00
70151;DHT22;57517;43.562;19.540;2022-08-11T11:58:01;742.80;768.00
70151;DHT22;57517;43.562;19.540;2022-08-11T12:00:46;742.50;768.00
70151;DHT22;57517;43.562;19.540;2022-08-11T12:03:32;742.60;768.00
70151;DHT22;57517;43.562;19.540;2022-08-11T12:05:59;742.60;793.60
70151;DHT22;57517;43.562;19.540;2022-08-11T12:08:25;742.60;844.80
70151;DHT22;57517;43.562;19.540;2022-08-11T12:10:54;742.50;844.80
70151;DHT22;57517;43.562;19.540;2022-08-11T12:13:42;742.40;870.40
70151;DHT22;57517;43.562;19.540;2022-08-11T12:16:11;742.60;819.20
70151;DHT22;57517;43.562;19.540;2022-08-11T12:18:39;742.60;793.60
70151;DHT22;57517;43.562;19.540;2022-08-11T12:21:07;742.70;793.60
70151;DHT22;57517;43.562;19.540;2022-08-11T12:23:35;742.80;768.00
70151;DHT22;57517;43.562;19.540;2022-08-11T12:26:20;742.80;768.00
70151;DHT22;57517;43.562;19.540;2022-08-11T12:29:07;742.80;768.00
70151;DHT22;57517;43.562;19.540;2022-08-11T12:31:35;742.90;768.00
70151;DHT22;57517;43.562;19.540;2022-08-11T12:34:04;743.00;768.00
70151;DHT22;57517;43.562;19.540;2022-08-11T12:36:49;743.10;742.40
70151;DHT22;57517;43.562;19.540;2022-08-11T12:39:20;743.30;793.60
70151;DHT22;57517;43.562;19.540;2022-08-11T12:42:09;743.30;742.40
70151;DHT22;57517;43.562;19.540;2022-08-11T12:44:56;768.00;768.00
70151;DHT22;57517;43.562;19.540;2022-08-11T12:47:46;768.20;742.40
70151;DHT22;57517;43.562;19.540;2022-08-11T12:50:33;768.00;742.40
70151;DHT22;57517;43.562;19.540;2022-08-11T12:53:25;743.30;742.40
70151;DHT22;57517;43.562;19.540;2022-08-11T12:55:54;743.30;742.40
70151;DHT22;57517;43.562;19.540;2022-08-11T12:58:40;743.20;742.40
70151;DHT22;57517;43.562;19.540;2022-08-11T13:01:07;743.20;742.40
70151;DHT22;57517;43.562;19.540;2022-08-11T13:03:53;743.30;742.40
70151;DHT22;57517;43.562;19.540;2022-08-11T13:06:38;768.00;793.60
70151;DHT22;57517;43.562;19.540;2022-08-11T13:09:06;743.10;768.00
70151;DHT22;57517;43.562;19.540;2022-08-11T13:11:34;743.00;742.40
70151;DHT22;57517;43.562;19.540;2022-08-11T13:14:19;742.90;768.00
70151;DHT22;57517;43.562;19.540;2022-08-11T13:16:46;743.20;742.40
70151;DHT22;57517;43.562;19.540;2022-08-11T13:19:32;743.20;742.40
70151;DHT22;57517;43.562;19.540;2022-08-11T13:21:59;743.30;742.40
70151;DHT22;57517;43.562;19.540;2022-08-11T13:24:27;743.30;742.40
70151;DHT22;57517;43.562;19.540;2022-08-11T13:26:53;743.30;768.00
70151;DHT22;57517;43.562;19.540;2022-08-11T13:29:24;768.10;742.40
70151;DHT22;57517;43.562;19.540;2022-08-11T13:31:52;768.20;742.40
70151;DHT22;57517;43.562;19.540;2022-08-11T13:34:20;768.40;716.80
70151;DHT22;57517;43.562;19.540;2022-08-11T13:36:50;768.40;742.40
70151;DHT22;57517;43.562;19.540;2022-08-11T13:39:16;768.40;716.80
70151;DHT22;57517;43.562;19.540;2022-08-11T13:41:43;768.10;742.40
70151;DHT22;57517;43.562;19.540;2022-08-11T13:44:13;743.10;768.00
70151;DHT22;57517;43.562;19.540;2022-08-11T13:46:40;743.10;742.40
70151;DHT22;57517;43.562;19.540;2022-08-11T13:49:07;743.10;768.00
70151;DHT22;57517;43.562;19.540;2022-08-11T13:51:34;743.00;793.60
70151;DHT22;57517;43.562;19.540;2022-08-11T13:54:14;742.90;768.00
70151;DHT22;57517;43.562;19.540;2022-08-11T13:56:45;742.90;793.60
70151;DHT22;57517;43.562;19.540;2022-08-11T13:59:14;743.00;768.00
70151;DHT22;57517;43.562;19.540;2022-08-11T14:01:54;743.00;768.00
70151;DHT22;57517;43.562;19.540;2022-08-11T14:04:27;742.90;742.40
70151;DHT22;57517;43.562;19.540;2022-08-11T14:06:54;742.90;768.00
70151;DHT22;57517;43.562;19.540;2022-08-11T14:09:27;742.90;768.00
70151;DHT22;57517;43.562;19.540;2022-08-11T14:11:59;743.00;768.00
70151;DHT22;57517;43.562;19.540;2022-08-11T14:14:48;743.10;768.00
70151;DHT22;57517;43.562;19.540;2022-08-11T14:17:18;742.90;793.60
70151;DHT22;57517;43.562;19.540;2022-08-11T14:19:46;743.00;768.00
70151;DHT22;57517;43.562;19.540;2022-08-11T14:22:16;743.10;768.00
70151;DHT22;57517;43.562;19.540;2022-08-11T14:24:44;743.20;742.40
70151;DHT22;57517;43.562;19.540;2022-08-11T14:27:15;743.20;742.40
70151;DHT22;57517;43.562;19.540;2022-08-11T14:29:41;743.30;768.00
70151;DHT22;57517;43.562;19.540;2022-08-11T14:32:13;743.30;768.00
70151;DHT22;57517;43.562;19.540;2022-08-11T14:34:43;743.30;768.00
70151;DHT22;57517;43.562;19.540;2022-08-11T14:37:23;743.10;768.00
70151;DHT22;57517;43.562;19.540;2022-08-11T14:39:53;742.90;793.60
70151;DHT22;57517;43.562;19.540;2022-08-11T14:42:22;742.90;793.60
70151;DHT22;57517;43.562;19.540;2022-08-11T14:45:10;742.90;793.60
70151;DHT22;57517;43.562;19.540;2022-08-11T14:48:01;743.00;793.60
70151;DHT22;57517;43.562;19.540;2022-08-11T14:50:30;742.90;793.60
70151;DHT22;57517;43.562;19.540;2022-08-11T14:53:03;742.90;793.60
70151;DHT22;57517;43.562;19.540;2022-08-11T14:55:34;742.80;793.60
70151;DHT22;57517;43.562;19.540;2022-08-11T14:58:22;742.80;793.60
70151;DHT22;57517;43.562;19.540;2022-08-11T15:00:56;742.90;793.60
70151;DHT22;57517;43.562;19.540;2022-08-11T15:03:25;742.90;793.60
70151;DHT22;57517;43.562;19.540;2022-08-11T15:05:53;742.90;793.60
70151;DHT22;57517;43.562;19.540;2022-08-11T15:08:21;743.00;793.60
70151;DHT22;57517;43.562;19.540;2022-08-11T15:11:11;742.90;793.60
70151;DHT22;57517;43.562;19.540;2022-08-11T15:13:58;743.00;793.60
70151;DHT22;57517;43.562;19.540;2022-08-11T15:16:26;742.80;793.60
70151;DHT22;57517;43.562;19.540;2022-08-11T15:19:11;742.80;819.20
70151;DHT22;57517;43.562;19.540;2022-08-11T15:21:38;742.70;819.20
70151;DHT22;57517;43.562;19.540;2022-08-11T15:24:22;742.60;819.20
70151;DHT22;57517;43.562;19.540;2022-08-11T15:26:49;717.70;819.20
70151;DHT22;57517;43.562;19.540;2022-08-11T15:29:36;717.60;819.20
70151;DHT22;57517;43.562;19.540;2022-08-11T15:32:23;717.60;844.80
70151;DHT22;57517;43.562;19.540;2022-08-11T15:35:09;717.50;819.20
70151;DHT22;57517;43.562;19.540;2022-08-11T15:37:55;717.60;844.80
70151;DHT22;57517;43.562;19.540;2022-08-11T15:40:30;717.50;844.80
70151;DHT22;57517;43.562;19.540;2022-08-11T15:43:20;717.50;844.80
70151;DHT22;57517;43.562;19.540;2022-08-11T15:46:18;717.50;844.80
70151;DHT22;57517;43.562;19.540;2022-08-11T15:49:00;717.50;844.80
70151;DHT22;57517;43.562;19.540;2022-08-11T15:51:34;717.40;844.80
70151;DHT22;57517;43.562;19.540;2022-08-11T15:54:10;717.30;844.80
70151;DHT22;57517;43.562;19.540;2022-08-11T15:56:40;717.30;844.80
70151;DHT22;57517;43.562;19.540;2022-08-11T15:59:07;717.30;844.80
70151;DHT22;57517;43.562;19.540;2022-08-11T16:01:54;717.30;844.80
70151;DHT22;57517;43.562;19.540;2022-08-11T16:04:40;717.30;844.80
70151;DHT22;57517;43.562;19.540;2022-08-11T16:07:16;717.30;844.80
70151;DHT22;57517;43.562;19.540;2022-08-11T16:12:27;717.30;844.80
70151;DHT22;57517;43.562;19.540;2022-08-11T16:15:02;717.20;844.80
70151;DHT22;57517;43.562;19.540;2022-08-11T16:17:50;717.40;844.80
70151;DHT22;57517;43.562;19.540;2022-08-11T16:20:20;717.50;844.80
70151;DHT22;57517;43.562;19.540;2022-08-11T16:22:48;717.50;844.80
70151;DHT22;57517;43.562;19.540;2022-08-11T16:25:20;717.60;844.80
70151;DHT22;57517;43.562;19.540;2022-08-11T16:27:55;717.60;844.80
70151;DHT22;57517;43.562;19.540;2022-08-11T16:30:36;717.50;870.40
70151;DHT22;57517;43.562;19.540;2022-08-11T16:33:03;717.40;844.80
70151;DHT22;57517;43.562;19.540;2022-08-11T16:35:35;717.40;844.80
70151;DHT22;57517;43.562;19.540;2022-08-11T16:38:21;717.30;870.40
70151;DHT22;57517;43.562;19.540;2022-08-11T16:41:09;717.40;870.40
70151;DHT22;57517;43.562;19.540;2022-08-11T16:43:45;717.30;896.00
70151;DHT22;57517;43.562;19.540;2022-08-11T16:46:32;716.90;896.00
70151;DHT22;57517;43.562;19.540;2022-08-11T16:49:25;716.90;896.00
70151;DHT22;57517;43.562;19.540;2022-08-11T16:51:51;716.90;896.00
70151;DHT22;57517;43.562;19.540;2022-08-11T16:54:18;716.90;896.00
70151;DHT22;57517;43.562;19.540;2022-08-11T16:56:46;716.90;896.00
70151;DHT22;57517;43.562;19.540;2022-08-11T17:05:18;716.80;896.00
70151;DHT22;57517;43.562;19.540;2022-08-11T17:08:06;692.10;896.00
70151;DHT22;57517;43.562;19.540;2022-08-11T17:10:59;692.10;870.40
70151;DHT22;57517;43.562;19.540;2022-08-11T17:13:54;692.10;896.00
70151;DHT22;57517;43.562;19.540;2022-08-11T17:16:32;716.80;921.60
70151;DHT22;57517;43.562;19.540;2022-08-11T17:21:39;692.10;896.00
70151;DHT22;57517;43.562;19.540;2022-08-11T17:24:27;692.10;896.00
70151;DHT22;57517;43.562;19.540;2022-08-11T17:26:54;692.00;896.00
70151;DHT22;57517;43.562;19.540;2022-08-11T17:29:45;691.90;896.00
70151;DHT22;57517;43.562;19.540;2022-08-11T17:32:16;691.90;896.00
70151;DHT22;57517;43.562;19.540;2022-08-11T17:35:13;691.70;896.00
70151;DHT22;57517;43.562;19.540;2022-08-11T17:40:30;691.70;896.00
70151;DHT22;57517;43.562;19.540;2022-08-11T17:42:57;691.50;921.60
70151;DHT22;57517;43.562;19.540;2022-08-11T17:45:44;691.50;921.60
70151;DHT22;57517;43.562;19.540;2022-08-11T17:48:31;691.50;896.00
70151;DHT22;57517;43.562;19.540;2022-08-11T17:51:07;691.40;896.00
70151;DHT22;57517;43.562;19.540;2022-08-11T17:53:41;691.20;896.00
70151;DHT22;57517;43.562;19.540;2022-08-11T17:56:29;691.20;896.00
70151;DHT22;57517;43.562;19.540;2022-08-11T17:59:15;691.20;896.00
70151;DHT22;57517;43.562;19.540;2022-08-11T18:02:01;666.50;921.60
70151;DHT22;57517;43.562;19.540;2022-08-11T18:04:50;666.50;921.60
70151;DHT22;57517;43.562;19.540;2022-08-11T18:07:18;666.40;921.60
70151;DHT22;57517;43.562;19.540;2022-08-11T18:10:05;666.40;947.20
70151;DHT22;57517;43.562;19.540;2022-08-11T18:12:51;666.50;921.60
70151;DHT22;57517;43.562;19.540;2022-08-11T18:15:39;666.40;921.60
70151;DHT22;57517;43.562;19.540;2022-08-11T18:18:24;666.40;947.20
70151;DHT22;57517;43.562;19.540;2022-08-11T18:21:11;666.40;947.20
70151;DHT22;57517;43.562;19.540;2022-08-11T18:24:02;666.20;947.20
70151;DHT22;57517;43.562;19.540;2022-08-11T18:26:47;666.30;972.80
70151;DHT22;57517;43.562;19.540;2022-08-11T18:29:35;666.40;972.80
70151;DHT22;57517;43.562;19.540;2022-08-11T18:32:23;666.10;998.40
70151;DHT22;57517;43.562;19.540;2022-08-11T18:35:09;666.10;1024.00
70151;DHT22;57517;43.562;19.540;2022-08-11T18:37:55;666.00;998.40
70151;DHT22;57517;43.562;19.540;2022-08-11T18:40:42;666.00;998.40
70151;DHT22;57517;43.562;19.540;2022-08-11T18:43:28;666.00;998.40
70151;DHT22;57517;43.562;19.540;2022-08-11T18:46:15;665.80;1024.00
70151;DHT22;57517;43.562;19.540;2022-08-11T18:49:02;640.90;1024.00
70151;DHT22;57517;43.562;19.540;2022-08-11T18:51:52;640.90;1024.00
70151;DHT22;57517;43.562;19.540;2022-08-11T18:54:40;640.90;1024.00
70151;DHT22;57517;43.562;19.540;2022-08-11T18:57:25;640.80;1024.00
70151;DHT22;57517;43.562;19.540;2022-08-11T19:00:10;640.80;998.40
70151;DHT22;57517;43.562;19.540;2022-08-11T19:02:55;640.70;1024.00
70151;DHT22;57517;43.562;19.540;2022-08-11T19:05:42;640.70;1024.00
70151;DHT22;57517;43.562;19.540;2022-08-11T19:08:30;640.60;1049.60
70151;DHT22;57517;43.562;19.540;2022-08-11T19:11:18;640.60;1024.00
70151;DHT22;57517;43.562;19.540;2022-08-11T19:14:04;640.60;1049.60
70151;DHT22;57517;43.562;19.540;2022-08-11T19:16:50;640.50;1049.60
70151;DHT22;57517;43.562;19.540;2022-08-11T19:19:36;640.40;1075.20
70151;DHT22;57517;43.562;19.540;2022-08-11T19:22:23;615.20;1100.80
70151;DHT22;57517;43.562;19.540;2022-08-11T19:25:09;615.10;1100.80
70151;DHT22;57517;43.562;19.540;2022-08-11T19:27:54;615.00;1126.40
70151;DHT22;57517;43.562;19.540;2022-08-11T19:30:39;615.10;1100.80
70151;DHT22;57517;43.562;19.540;2022-08-11T19:33:25;614.80;1152.00
70151;DHT22;57517;43.562;19.540;2022-08-11T19:36:10;614.60;1177.60
70151;DHT22;57517;43.562;19.540;2022-08-11T19:38:55;589.70;1203.20
70151;DHT22;57517;43.562;19.540;2022-08-11T19:41:41;589.60;1203.20
70151;DHT22;57517;43.562;19.540;2022-08-11T19:44:26;589.60;1203.20
70151;DHT22;57517;43.562;19.540;2022-08-11T19:47:12;589.60;1228.80
70151;DHT22;57517;43.562;19.540;2022-08-11T19:49:57;589.60;1203.20
70151;DHT22;57517;43.562;19.540;2022-08-11T19:52:42;589.60;1203.20